createdAt,value
2018-04-15T00:02:18.780Z,9.72
2018-04-15T00:04:46.426Z,9.59
2018-04-15T00:07:14.158Z,9.54
2018-04-15T00:09:41.818Z,9.44
2018-04-15T00:12:09.434Z,9.39
2018-04-15T00:14:37.022Z,9.33
2018-04-15T00:17:04.629Z,9.26
2018-04-15T00:19:32.249Z,9.22
2018-04-15T00:21:59.831Z,9.20
2018-04-15T00:24:27.530Z,9.18
2018-04-15T00:26:55.905Z,9.16
2018-04-15T00:29:23.496Z,9.14
2018-04-15T00:31:51.109Z,9.11
2018-04-15T00:34:18.689Z,9.13
2018-04-15T00:36:46.317Z,9.12
2018-04-15T00:39:13.901Z,9.15
2018-04-15T00:41:41.509Z,9.16
2018-04-15T00:44:09.097Z,9.14
2018-04-15T00:46:36.801Z,9.25
2018-04-15T00:49:04.399Z,9.24
2018-04-15T00:51:31.978Z,9.21
2018-04-15T00:54:11.403Z,9.20
2018-04-15T00:56:39.010Z,9.15
2018-04-15T00:59:06.598Z,9.18
2018-04-15T01:01:34.213Z,9.18
2018-04-15T01:04:01.809Z,9.19
2018-04-15T01:06:29.423Z,9.24
2018-04-15T01:08:57.005Z,9.29
2018-04-15T01:11:24.626Z,9.51
2018-04-15T01:13:52.261Z,9.49
2018-04-15T01:16:19.921Z,9.34
2018-04-15T01:18:47.524Z,9.28
2018-04-15T01:21:15.143Z,9.16
2018-04-15T01:23:42.736Z,9.09
2018-04-15T01:26:10.317Z,9.06
2018-04-15T01:28:37.928Z,9.01
2018-04-15T01:31:05.610Z,8.96
2018-04-15T01:33:33.225Z,8.92
2018-04-15T01:36:00.834Z,8.89
2018-04-15T01:38:28.458Z,8.88
2018-04-15T01:40:56.040Z,8.86
2018-04-15T01:43:23.629Z,8.88
2018-04-15T01:45:51.209Z,8.83
2018-04-15T01:48:18.788Z,8.76
2018-04-15T01:50:46.368Z,8.77
2018-04-15T01:53:13.959Z,8.71
2018-04-15T01:55:41.537Z,8.71
2018-04-15T01:58:09.169Z,8.87
2018-04-15T02:00:36.762Z,8.83
2018-04-15T02:03:05.423Z,8.81
2018-04-15T02:05:33.004Z,8.78
2018-04-15T02:08:00.589Z,8.78
2018-04-15T02:10:28.178Z,8.76
2018-04-15T02:12:55.796Z,8.76
2018-04-15T02:15:23.402Z,8.74
2018-04-15T02:17:50.990Z,8.71
2018-04-15T02:20:18.582Z,8.66
2018-04-15T02:22:46.165Z,8.73
2018-04-15T02:25:13.756Z,8.90
2018-04-15T02:27:41.490Z,8.89
2018-04-15T02:30:09.161Z,8.97
2018-04-15T02:32:36.750Z,8.80
2018-04-15T02:35:04.421Z,8.77
2018-04-15T02:37:32.011Z,8.85
2018-04-15T02:39:59.593Z,8.78
2018-04-15T02:42:27.824Z,8.76
2018-04-15T02:44:55.421Z,8.74
2018-04-15T02:47:23.007Z,8.73
2018-04-15T02:49:50.598Z,8.72
2018-04-15T02:52:18.180Z,8.84
2018-04-15T02:54:45.765Z,8.79
2018-04-15T02:57:13.373Z,8.79
2018-04-15T02:59:41.193Z,8.79
2018-04-15T03:02:08.810Z,8.79
2018-04-15T03:04:36.394Z,8.80
2018-04-15T03:07:04.006Z,8.83
2018-04-15T03:09:31.596Z,8.86
2018-04-15T03:11:59.223Z,8.82
2018-04-15T03:14:26.894Z,8.80
2018-04-15T03:16:54.476Z,8.81
2018-04-15T03:19:22.989Z,8.81
2018-04-15T03:21:51.276Z,8.80
2018-04-15T03:24:18.889Z,8.90
2018-04-15T03:26:46.479Z,8.84
2018-04-15T03:29:14.060Z,8.85
2018-04-15T03:31:42.433Z,8.97
2018-04-15T03:34:10.792Z,8.93
2018-04-15T03:36:38.377Z,8.96
2018-04-15T03:39:06.954Z,8.97
2018-04-15T03:41:34.533Z,9.00
2018-04-15T03:44:02.141Z,9.04
2018-04-15T03:46:29.761Z,9.04
2018-04-15T03:48:57.353Z,9.08
2018-04-15T03:51:25.091Z,9.33
2018-04-15T03:53:52.675Z,9.46
2018-04-15T03:56:20.261Z,9.31
2018-04-15T03:58:47.842Z,9.29
2018-04-15T04:01:15.422Z,9.27
2018-04-15T04:03:43.041Z,9.20
2018-04-15T04:06:10.621Z,9.17
2018-04-15T04:08:38.237Z,9.15
2018-04-15T04:11:05.827Z,9.09
2018-04-15T04:13:33.468Z,9.07
2018-04-15T04:16:01.053Z,9.03
2018-04-15T04:18:40.552Z,9.14
2018-04-15T04:21:20.002Z,9.12
2018-04-15T04:23:59.505Z,9.06
2018-04-15T04:26:27.110Z,9.10
2018-04-15T04:28:55.630Z,9.06
2018-04-15T04:31:23.237Z,9.06
2018-04-15T04:33:50.852Z,9.04
2018-04-15T04:36:18.464Z,9.15
2018-04-15T04:38:46.051Z,9.11
2018-04-15T04:41:13.637Z,9.10
2018-04-15T04:43:41.220Z,9.09
2018-04-15T04:46:08.797Z,9.15
2018-04-15T04:48:36.385Z,9.22
2018-04-15T04:51:03.965Z,9.16
2018-04-15T04:53:31.554Z,9.33
2018-04-15T04:55:59.132Z,9.39
2018-04-15T04:58:26.716Z,9.29
2018-04-15T05:00:54.296Z,9.28
2018-04-15T05:03:21.878Z,9.30
2018-04-15T05:05:49.473Z,9.29
2018-04-15T05:08:17.061Z,9.33
2018-04-15T05:10:44.760Z,9.35
2018-04-15T05:15:48.382Z,9.74
2018-04-15T05:18:15.963Z,9.71
2018-04-15T05:20:43.584Z,9.88
2018-04-15T05:23:11.742Z,9.87
2018-04-15T05:25:39.423Z,10.07
2018-04-15T05:28:07.781Z,9.92
2018-04-15T05:30:35.360Z,9.93
2018-04-15T05:33:03.023Z,10.13
2018-04-15T05:35:30.695Z,10.20
2018-04-15T05:37:58.277Z,10.15
2018-04-15T05:40:26.909Z,10.08
2018-04-15T05:42:54.489Z,10.08
2018-04-15T05:45:22.102Z,10.09
2018-04-15T05:47:49.719Z,10.18
2018-04-15T05:50:17.349Z,10.33
2018-04-15T05:52:44.930Z,10.54
2018-04-15T05:55:12.547Z,10.52
2018-04-15T05:57:40.134Z,10.40
2018-04-15T06:00:07.779Z,10.45
2018-04-15T06:02:35.369Z,10.57
2018-04-15T06:05:03.899Z,10.73
2018-04-15T06:07:31.486Z,10.79
2018-04-15T06:10:00.085Z,10.93
2018-04-15T06:12:27.783Z,11.23
2018-04-15T06:14:55.446Z,11.25
2018-04-15T06:17:23.092Z,11.48
2018-04-15T06:19:50.706Z,11.62
2018-04-15T06:22:18.438Z,11.78
2018-04-15T06:24:46.022Z,11.69
2018-04-15T06:27:13.645Z,11.73
2018-04-15T06:29:42.136Z,11.86
2018-04-15T06:32:10.388Z,11.99
2018-04-15T06:34:39.215Z,11.98
2018-04-15T06:37:07.791Z,12.16
2018-04-15T06:39:36.530Z,12.10
2018-04-15T06:42:05.715Z,12.14
2018-04-15T06:44:33.446Z,12.19
2018-04-15T06:47:01.114Z,12.22
2018-04-15T06:49:28.774Z,12.38
2018-04-15T06:51:56.362Z,12.26
2018-04-15T06:54:23.951Z,12.32
2018-04-15T06:56:51.537Z,12.63
2018-04-15T06:59:19.215Z,12.62
2018-04-15T07:01:46.828Z,12.63
2018-04-15T07:04:14.441Z,12.76
2018-04-15T07:06:42.102Z,12.99
2018-04-15T07:09:09.760Z,13.36
2018-04-15T07:11:37.349Z,13.33
2018-04-15T07:14:05.859Z,13.41
2018-04-15T07:16:33.502Z,13.58
2018-04-15T07:19:02.837Z,13.67
2018-04-15T07:21:31.341Z,13.77
2018-04-15T07:23:58.925Z,13.82
2018-04-15T07:26:27.447Z,14.05
2018-04-15T07:28:55.026Z,14.09
2018-04-15T07:31:22.611Z,14.26
2018-04-15T07:33:50.258Z,14.32
2018-04-15T07:36:17.917Z,14.52
2018-04-15T07:38:45.529Z,14.61
2018-04-15T07:41:13.653Z,14.70
2018-04-15T07:43:41.262Z,14.84
2018-04-15T07:46:08.879Z,15.03
2018-04-15T07:48:36.459Z,15.07
2018-04-15T07:51:04.039Z,15.34
2018-04-15T07:53:31.626Z,15.54
2018-04-15T07:55:59.229Z,15.57
2018-04-15T07:58:26.920Z,15.87
2018-04-15T08:00:54.500Z,15.87
2018-04-15T08:03:22.132Z,16.01
2018-04-15T08:05:49.718Z,16.15
2018-04-15T08:08:17.365Z,16.19
2018-04-15T08:10:51.692Z,16.57
2018-04-15T08:13:19.285Z,16.77
2018-04-15T08:15:46.863Z,16.73
2018-04-15T08:18:14.441Z,16.83
2018-04-15T08:20:42.153Z,16.77
2018-04-15T08:23:10.506Z,16.93
2018-04-15T08:25:38.090Z,17.03
2018-04-15T08:28:06.703Z,17.15
2018-04-15T08:30:34.281Z,17.17
2018-04-15T08:33:01.860Z,17.40
2018-04-15T08:35:29.437Z,17.59
2018-04-15T08:37:57.013Z,17.64
2018-04-15T08:40:24.689Z,17.65
2018-04-15T08:42:52.352Z,17.79
2018-04-15T08:45:20.018Z,17.71
2018-04-15T08:47:47.614Z,17.70
2018-04-15T08:50:15.193Z,17.82
2018-04-15T08:52:43.566Z,17.73
2018-04-15T08:55:11.984Z,17.68
2018-04-15T08:57:40.389Z,17.55
2018-04-15T09:00:07.999Z,17.32
2018-04-15T09:02:35.607Z,17.43
2018-04-15T09:05:03.887Z,17.44
2018-04-15T09:07:31.493Z,17.54
2018-04-15T09:09:59.925Z,17.75
2018-04-15T09:12:28.863Z,17.85
2018-04-15T09:14:56.485Z,18.03
2018-04-15T09:17:25.022Z,18.31
2018-04-15T09:19:52.608Z,18.52
2018-04-15T09:22:20.679Z,18.77
2018-04-15T09:24:49.128Z,18.82
2018-04-15T09:27:17.999Z,19.04
2018-04-15T09:29:46.014Z,19.08
2018-04-15T09:32:14.383Z,18.91
2018-04-15T09:34:42.825Z,19.07
2018-04-15T09:37:11.847Z,19.28
2018-04-15T09:39:40.100Z,19.46
2018-04-15T09:42:08.296Z,19.52
2018-04-15T09:44:36.926Z,19.63
2018-04-15T09:47:05.169Z,19.77
2018-04-15T09:49:33.277Z,19.99
2018-04-15T09:52:00.956Z,20.11
2018-04-15T09:54:28.540Z,20.07
2018-04-15T09:56:56.166Z,20.18
2018-04-15T09:59:23.824Z,20.43
2018-04-15T10:01:52.366Z,20.63
2018-04-15T10:04:19.977Z,20.49
2018-04-15T10:06:47.634Z,20.64
2018-04-15T10:09:15.298Z,20.57
2018-04-15T10:11:43.059Z,20.78
2018-04-15T10:14:10.645Z,20.84
2018-04-15T10:16:38.292Z,20.72
2018-04-15T10:19:05.953Z,20.71
2018-04-15T10:21:34.088Z,20.79
2018-04-15T10:24:02.776Z,20.71
2018-04-15T10:26:30.494Z,20.69
2018-04-15T10:28:58.097Z,20.79
2018-04-15T10:31:25.701Z,20.76
2018-04-15T10:33:53.366Z,20.87
2018-04-15T10:36:20.977Z,20.82
2018-04-15T10:38:48.586Z,20.84
2018-04-15T10:41:16.206Z,20.78
2018-04-15T10:43:43.917Z,20.80
2018-04-15T10:46:11.577Z,20.88
2018-04-15T10:48:39.240Z,21.02
2018-04-15T10:51:07.581Z,21.12
2018-04-15T10:53:35.285Z,21.14
2018-04-15T10:56:03.788Z,21.07
2018-04-15T10:58:31.428Z,21.36
2018-04-15T11:00:59.034Z,21.43
2018-04-15T11:03:26.649Z,21.55
2018-04-15T11:05:54.270Z,21.72
2018-04-15T11:08:21.851Z,21.78
2018-04-15T11:10:49.438Z,21.69
2018-04-15T11:13:17.017Z,21.76
2018-04-15T11:15:45.074Z,21.91
2018-04-15T11:18:12.649Z,21.95
2018-04-15T11:20:40.758Z,22.13
2018-04-15T11:23:08.374Z,21.97
2018-04-15T11:25:35.951Z,22.11
2018-04-15T11:28:03.522Z,22.21
2018-04-15T11:30:31.149Z,22.05
2018-04-15T11:32:58.814Z,22.20
2018-04-15T11:35:26.536Z,22.27
2018-04-15T11:37:54.106Z,22.36
2018-04-15T11:40:21.698Z,22.44
2018-04-15T11:42:49.365Z,22.48
2018-04-15T11:45:17.083Z,22.38
2018-04-15T11:47:44.652Z,22.37
2018-04-15T11:50:12.217Z,22.67
2018-04-15T11:52:39.789Z,22.78
2018-04-15T11:55:07.469Z,22.92
2018-04-15T11:57:35.073Z,22.84
2018-04-15T12:00:02.754Z,22.93
2018-04-15T12:02:31.234Z,22.84
2018-04-15T12:04:58.843Z,22.80
2018-04-15T12:07:28.300Z,22.64
2018-04-15T12:09:57.979Z,22.81
2018-04-15T12:12:26.146Z,22.58
2018-04-15T12:14:54.631Z,22.79
2018-04-15T12:17:22.692Z,22.96
2018-04-15T12:19:50.903Z,23.06
2018-04-15T12:22:19.766Z,23.13
2018-04-15T12:24:47.844Z,22.92
2018-04-15T12:27:15.852Z,22.91
2018-04-15T12:29:44.847Z,22.72
2018-04-15T12:32:13.860Z,22.92
2018-04-15T12:34:42.591Z,22.90
2018-04-15T12:37:11.042Z,22.98
2018-04-15T12:39:38.906Z,22.97
2018-04-15T12:42:07.443Z,23.00
2018-04-15T12:44:35.618Z,23.22
2018-04-15T12:47:03.900Z,23.34
2018-04-15T12:49:32.216Z,23.69
2018-04-15T12:52:01.738Z,24.03
2018-04-15T12:54:31.310Z,23.78
2018-04-15T12:56:59.995Z,23.80
2018-04-15T12:59:28.311Z,23.59
2018-04-15T13:01:57.554Z,23.72
2018-04-15T13:04:25.648Z,23.73
2018-04-15T13:06:53.345Z,24.04
2018-04-15T13:09:20.922Z,24.12
2018-04-15T13:11:48.501Z,24.02
2018-04-15T13:14:16.081Z,24.16
2018-04-15T13:16:44.522Z,24.15
2018-04-15T13:19:12.101Z,24.44
2018-04-15T13:21:39.677Z,24.20
2018-04-15T13:24:07.259Z,23.72
2018-04-15T13:26:34.965Z,24.06
2018-04-15T13:29:02.549Z,24.27
2018-04-15T13:31:30.125Z,24.20
2018-04-15T13:33:57.752Z,24.11
2018-04-15T13:36:25.329Z,24.46
2018-04-15T13:38:52.944Z,24.51
2018-04-15T13:41:20.593Z,24.66
2018-04-15T13:43:48.168Z,24.72
2018-04-15T13:46:15.758Z,24.64
2018-04-15T13:48:43.457Z,24.44
2018-04-15T13:51:11.037Z,24.71
2018-04-15T13:53:38.682Z,24.57
2018-04-15T13:56:06.256Z,24.07
2018-04-15T13:58:33.969Z,24.29
2018-04-15T14:01:01.583Z,24.36
2018-04-15T14:03:29.153Z,24.38
2018-04-15T14:05:56.758Z,24.19
2018-04-15T14:08:24.340Z,24.30
2018-04-15T14:10:51.950Z,24.47
2018-04-15T14:13:19.528Z,24.83
2018-04-15T14:15:47.105Z,25.03
2018-04-15T14:18:14.717Z,25.03
2018-04-15T14:20:42.428Z,24.63
2018-04-15T14:23:09.997Z,24.28
2018-04-15T14:25:37.645Z,24.39
2018-04-15T14:28:05.245Z,24.70
2018-04-15T14:30:32.830Z,24.80
2018-04-15T14:33:00.398Z,25.01
2018-04-15T14:35:27.989Z,25.03
2018-04-15T14:37:55.573Z,24.84
2018-04-15T14:40:23.230Z,24.78
2018-04-15T14:42:50.813Z,24.62
2018-04-15T14:45:18.392Z,24.59
2018-04-15T14:47:46.022Z,24.86
2018-04-15T14:50:13.627Z,25.15
2018-04-15T14:52:41.205Z,25.03
2018-04-15T14:55:09.694Z,25.18
2018-04-15T14:57:38.068Z,25.35
2018-04-15T15:00:05.763Z,25.08
2018-04-15T15:02:34.195Z,25.20
2018-04-15T15:05:01.775Z,25.40
2018-04-15T15:07:30.277Z,25.61
2018-04-15T15:09:57.857Z,25.54
2018-04-15T15:12:26.425Z,25.77
2018-04-15T15:14:54.005Z,25.82
2018-04-15T15:17:21.581Z,26.19
2018-04-15T15:19:50.033Z,25.81
2018-04-15T15:22:17.700Z,26.26
2018-04-15T15:24:45.306Z,25.98
2018-04-15T15:27:13.840Z,26.30
2018-04-15T15:29:41.420Z,25.45
2018-04-15T15:32:10.014Z,25.10
2018-04-15T15:34:37.645Z,25.35
2018-04-15T15:37:05.267Z,26.21
2018-04-15T15:39:32.841Z,25.56
2018-04-15T15:42:00.534Z,26.09
2018-04-15T15:44:28.124Z,25.67
2018-04-15T15:46:55.755Z,25.90
2018-04-15T15:49:23.343Z,25.89
2018-04-15T15:51:51.041Z,25.19
2018-04-15T15:54:20.140Z,24.69
2018-04-15T15:56:48.525Z,24.62
2018-04-15T15:59:16.580Z,24.50
2018-04-15T16:01:44.159Z,24.39
2018-04-15T16:04:12.673Z,24.11
2018-04-15T16:06:40.282Z,24.34
2018-04-15T16:09:08.752Z,24.12
2018-04-15T16:11:36.358Z,24.09
2018-04-15T16:14:03.966Z,23.87
2018-04-15T16:16:31.547Z,23.82
2018-04-15T16:18:59.127Z,23.47
2018-04-15T16:21:27.598Z,23.38
2018-04-15T16:23:55.173Z,23.26
2018-04-15T16:26:23.610Z,23.15
2018-04-15T16:28:51.185Z,23.06
2018-04-15T16:31:18.794Z,22.88
2018-04-15T16:33:46.371Z,22.97
2018-04-15T16:36:14.038Z,23.13
2018-04-15T16:38:41.613Z,22.97
2018-04-15T16:41:09.225Z,22.81
2018-04-15T16:43:36.845Z,22.79
2018-04-15T16:46:04.424Z,22.55
2018-04-15T16:48:32.048Z,22.43
2018-04-15T16:50:59.631Z,22.25
2018-04-15T16:53:27.349Z,22.06
2018-04-15T16:55:54.989Z,21.93
2018-04-15T16:58:22.703Z,21.76
2018-04-15T17:01:00.875Z,21.61
2018-04-15T17:03:29.254Z,21.42
2018-04-15T17:05:56.863Z,21.23
2018-04-15T17:08:24.533Z,21.05
2018-04-15T17:10:52.162Z,20.91
2018-04-15T17:13:19.766Z,20.78
2018-04-15T17:15:47.393Z,20.63
2018-04-15T17:18:15.016Z,20.49
2018-04-15T17:20:42.588Z,20.38
2018-04-15T17:23:10.211Z,20.29
2018-04-15T17:25:37.789Z,20.16
2018-04-15T17:28:05.445Z,20.03
2018-04-15T17:30:33.834Z,19.89
2018-04-15T17:33:01.412Z,19.78
2018-04-15T17:35:28.992Z,19.63
2018-04-15T17:37:56.565Z,19.49
2018-04-15T17:40:24.193Z,19.35
2018-04-15T17:42:51.897Z,19.22
2018-04-15T17:45:19.785Z,19.08
2018-04-15T17:47:47.427Z,18.94
2018-04-15T17:50:15.247Z,18.80
2018-04-15T17:52:42.862Z,18.66
2018-04-15T17:55:10.474Z,18.54
2018-04-15T17:57:38.178Z,18.39
2018-04-15T18:00:05.760Z,18.24
2018-04-15T18:02:33.400Z,18.11
2018-04-15T18:05:01.034Z,17.99
2018-04-15T18:07:29.449Z,17.86
2018-04-15T18:09:57.026Z,17.76
2018-04-15T18:12:25.614Z,17.66
2018-04-15T18:14:53.258Z,17.60
2018-04-15T18:17:20.953Z,17.52
2018-04-15T18:19:48.533Z,17.42
2018-04-15T18:22:16.195Z,17.48
2018-04-15T18:24:43.810Z,17.27
2018-04-15T18:27:11.466Z,17.15
2018-04-15T18:29:39.082Z,17.02
2018-04-15T18:32:06.660Z,16.94
2018-04-15T18:34:34.358Z,16.92
2018-04-15T18:37:02.044Z,16.92
2018-04-15T18:39:29.736Z,16.92
2018-04-15T18:41:57.347Z,16.92
2018-04-15T18:44:25.049Z,16.92
2018-04-15T18:46:52.631Z,16.89
2018-04-15T18:49:20.213Z,16.85
2018-04-15T18:51:47.899Z,16.94
2018-04-15T18:54:15.511Z,16.86
2018-04-15T18:56:43.126Z,16.76
2018-04-15T18:59:10.790Z,16.73
2018-04-15T19:01:38.606Z,16.66
2018-04-15T19:04:06.981Z,16.63
2018-04-15T19:06:35.418Z,16.59
2018-04-15T19:09:03.853Z,16.55
2018-04-15T19:11:31.425Z,16.41
2018-04-15T19:13:59.010Z,16.31
2018-04-15T19:16:27.537Z,16.09
2018-04-15T19:18:55.184Z,16.09
2018-04-15T19:21:22.824Z,15.92
2018-04-15T19:23:51.351Z,15.81
2018-04-15T19:26:19.225Z,15.72
2018-04-15T19:28:46.975Z,15.83
2018-04-15T19:31:14.898Z,15.75
2018-04-15T19:33:42.552Z,15.65
2018-04-15T19:36:11.135Z,15.53
2018-04-15T19:38:38.750Z,15.45
2018-04-15T19:41:06.349Z,15.37
2018-04-15T19:43:33.973Z,15.29
2018-04-15T19:46:01.560Z,15.25
2018-04-15T19:48:29.171Z,15.16
2018-04-15T19:50:56.834Z,15.12
2018-04-15T19:53:24.418Z,15.08
2018-04-15T19:55:52.045Z,15.02
2018-04-15T19:58:19.719Z,14.91
2018-04-15T20:00:47.327Z,14.87
2018-04-15T20:03:14.938Z,14.77
2018-04-15T20:05:42.599Z,14.68
2018-04-15T20:08:10.182Z,14.58
2018-04-15T20:10:37.825Z,14.51
2018-04-15T20:13:06.510Z,14.46
2018-04-15T20:15:34.906Z,14.45
2018-04-15T20:18:02.523Z,14.35
2018-04-15T20:20:30.898Z,14.32
2018-04-15T20:22:58.630Z,14.33
2018-04-15T20:25:26.299Z,14.31
2018-04-15T20:27:53.929Z,14.27
2018-04-15T20:30:21.532Z,14.22
2018-04-15T20:32:49.350Z,14.17
2018-04-15T20:35:16.937Z,14.16
2018-04-15T20:37:44.542Z,14.17
2018-04-15T20:40:12.129Z,14.18
2018-04-15T20:42:39.746Z,14.13
2018-04-15T20:45:07.329Z,14.11
2018-04-15T20:47:34.935Z,14.09
2018-04-15T20:50:02.582Z,13.99
2018-04-15T20:52:30.282Z,13.92
2018-04-15T20:54:57.942Z,13.86
2018-04-15T20:57:26.264Z,13.87
2018-04-15T20:59:53.854Z,14.12
2018-04-15T21:02:21.519Z,14.15
2018-04-15T21:04:50.741Z,13.90
2018-04-15T21:07:18.330Z,13.77
2018-04-15T21:09:45.914Z,13.70
2018-04-15T21:12:13.565Z,13.69
2018-04-15T21:14:41.157Z,13.77
2018-04-15T21:17:08.742Z,13.63
2018-04-15T21:19:37.234Z,13.56
2018-04-15T21:22:04.835Z,13.53
2018-04-15T21:24:33.242Z,13.53
2018-04-15T21:27:00.962Z,13.52
2018-04-15T21:29:28.555Z,13.46
2018-04-15T21:31:56.137Z,13.40
2018-04-15T21:34:23.762Z,13.35
2018-04-15T21:36:52.078Z,13.32
2018-04-15T21:39:19.695Z,13.37
2018-04-15T21:41:47.307Z,13.63
2018-04-15T21:44:14.893Z,13.45
2018-04-15T21:46:42.529Z,13.37
2018-04-15T21:49:10.182Z,13.39
2018-04-15T21:51:37.843Z,13.25
2018-04-15T21:54:27.437Z,13.19
2018-04-15T21:56:55.140Z,13.39
2018-04-15T21:59:22.851Z,13.33
2018-04-15T22:01:50.437Z,13.24
2018-04-15T22:04:18.037Z,13.15
2018-04-15T22:06:45.684Z,13.08
2018-04-15T22:09:13.294Z,13.04
2018-04-15T22:11:52.876Z,13.03
2018-04-15T22:14:20.459Z,13.23
2018-04-15T22:16:48.069Z,13.29
2018-04-15T22:19:15.728Z,13.27
2018-04-15T22:21:44.383Z,13.35
2018-04-15T22:24:11.962Z,13.22
2018-04-15T22:26:39.603Z,13.12
2018-04-15T22:29:07.184Z,13.16
2018-04-15T22:31:34.854Z,13.13
2018-04-15T22:34:02.425Z,13.22
2018-04-15T22:36:30.006Z,13.18
2018-04-15T22:38:57.626Z,13.14
2018-04-15T22:41:25.337Z,13.22
2018-04-15T22:43:52.914Z,13.21
2018-04-15T22:46:20.524Z,13.22
2018-04-15T22:48:48.145Z,13.37
2018-04-15T22:51:16.657Z,13.29
2018-04-15T22:53:44.289Z,13.34
2018-04-15T22:56:12.661Z,13.32
2018-04-15T22:58:45.948Z,13.27
2018-04-15T23:01:13.558Z,13.26
2018-04-15T23:03:41.180Z,13.23
2018-04-15T23:06:08.835Z,13.20
2018-04-15T23:08:36.421Z,13.26
2018-04-15T23:11:04.022Z,13.24
2018-04-15T23:13:31.607Z,13.29
2018-04-15T23:15:59.193Z,13.24
2018-04-15T23:18:26.901Z,13.24
2018-04-15T23:20:54.489Z,13.25
2018-04-15T23:23:22.876Z,13.45
2018-04-15T23:25:50.461Z,13.44
2018-04-15T23:28:18.038Z,13.30
2018-04-15T23:30:45.648Z,13.28
2018-04-15T23:33:13.229Z,13.16
2018-04-15T23:35:40.809Z,13.16
2018-04-15T23:38:08.467Z,13.16
2018-04-15T23:40:36.044Z,13.09
2018-04-15T23:43:03.624Z,13.02
2018-04-15T23:45:32.073Z,12.95
2018-04-15T23:47:59.653Z,12.89
2018-04-15T23:50:27.282Z,12.86
2018-04-15T23:52:54.864Z,12.84
2018-04-15T23:55:22.446Z,12.98
2018-04-15T23:57:50.048Z,13.08
